Time;durP1;ratioP1;P1;durP2;ratioP2;P2;SDS_P1;SDS_P2;PMS_P1;PMS_P2;Temp;Humidity;BMP_temperature;BMP_pressure;BME280_temperature;BME280_humidity;BME280_pressure;Samples;Min_cycle;Max_cycle;Signal;HPM_P1;HPM_P2
2022/06/28 00:02:00;;;;;;;9.03;7.00;;;23.40;82.50;;;;;;4911244;29;20195;-64
2022/06/28 00:04:26;;;;;;;10.53;7.00;;;23.40;82.20;;;;;;4869621;29;20202;-65
2022/06/28 00:06:52;;;;;;;8.63;7.40;;;23.30;82.60;;;;;;4898731;29;20218;-65
2022/06/28 00:09:18;;;;;;;11.60;7.37;;;23.30;82.60;;;;;;4876092;29;20247;-64
2022/06/28 00:11:44;;;;;;;9.83;7.00;;;23.30;82.70;;;;;;4870180;29;20192;-65
2022/06/28 00:16:56;;;;;;;9.40;7.70;;;23.30;82.70;;;;;;4888080;29;20198;-64
2022/06/28 00:19:21;;;;;;;10.13;6.90;;;23.30;82.60;;;;;;4866447;29;20197;-64
2022/06/28 00:21:48;;;;;;;9.97;7.77;;;23.30;82.80;;;;;;4851596;29;20200;-65
2022/06/28 00:24:14;;;;;;;9.40;7.90;;;23.30;82.70;;;;;;4881911;29;20192;-64
2022/06/28 00:26:41;;;;;;;11.23;8.10;;;23.30;82.50;;;;;;4878224;29;20250;-64
2022/06/28 00:29:07;;;;;;;9.80;8.00;;;23.20;82.70;;;;;;4878076;29;20188;-64
2022/06/28 00:31:33;;;;;;;9.53;7.63;;;23.20;82.90;;;;;;4882045;29;20259;-65
2022/06/28 00:33:58;;;;;;;10.20;7.80;;;23.20;83.00;;;;;;4867263;29;20264;-64
2022/06/28 00:36:24;;;;;;;16.87;8.30;;;23.20;83.00;;;;;;4868796;29;20224;-65
2022/06/28 00:38:50;;;;;;;10.60;7.60;;;23.20;82.80;;;;;;4869258;29;20200;-64
2022/06/28 00:41:16;;;;;;;14.47;7.43;;;23.10;82.80;;;;;;4885099;29;20209;-64
2022/06/28 00:43:42;;;;;;;8.23;6.70;;;23.10;82.70;;;;;;4884114;29;20286;-64
2022/06/28 00:46:08;;;;;;;9.03;7.23;;;23.10;82.80;;;;;;4872917;29;20297;-64
2022/06/28 00:48:34;;;;;;;12.30;7.50;;;23.10;83.00;;;;;;4908095;29;20251;-64
2022/06/28 00:51:01;;;;;;;10.87;7.83;;;23.00;82.90;;;;;;4901631;29;20204;-64
2022/06/28 00:53:27;;;;;;;7.93;7.13;;;23.00;83.10;;;;;;4885036;29;20188;-65
2022/06/28 00:55:52;;;;;;;10.17;7.40;;;23.00;83.10;;;;;;4884814;29;20192;-64
2022/06/28 00:58:18;;;;;;;11.80;7.57;;;23.00;83.30;;;;;;4882600;29;20234;-65
2022/06/28 01:00:46;;;;;;;11.57;8.23;;;23.00;83.20;;;;;;4851392;29;20228;-65
2022/06/28 01:03:15;;;;;;;12.53;8.10;;;23.00;83.40;;;;;;4883910;29;20192;-65
2022/06/28 01:05:42;;;;;;;9.17;7.57;;;23.00;83.00;;;;;;4884660;29;20215;-65
2022/06/28 01:08:09;;;;;;;13.60;7.77;;;23.00;82.80;;;;;;4883593;29;20192;-65
2022/06/28 01:10:36;;;;;;;8.90;7.53;;;23.00;83.10;;;;;;4883681;29;20297;-65
2022/06/28 01:13:03;;;;;;;8.87;7.87;;;23.00;83.20;;;;;;4871307;29;20223;-65
2022/06/28 01:15:30;;;;;;;10.80;7.93;;;23.00;83.40;;;;;;4880621;29;20227;-64
2022/06/28 01:17:58;;;;;;;10.00;8.50;;;23.00;83.40;;;;;;4908844;29;20206;-65
2022/06/28 01:20:24;;;;;;;10.93;8.40;;;23.00;83.40;;;;;;4886058;29;20200;-64
2022/06/28 01:22:51;;;;;;;11.13;8.20;;;22.90;83.50;;;;;;4853093;29;20206;-64
2022/06/28 01:25:16;;;;;;;9.57;7.70;;;22.90;83.60;;;;;;4867661;29;20220;-65
2022/06/28 01:27:43;;;;;;;10.10;8.30;;;22.90;83.60;;;;;;4862170;29;20240;-64
2022/06/28 01:30:09;;;;;;;10.67;8.23;;;22.90;83.50;;;;;;4884217;29;20191;-65
2022/06/28 01:32:35;;;;;;;13.97;8.90;;;23.00;83.40;;;;;;4866640;29;20197;-65
2022/06/28 01:35:02;;;;;;;11.23;8.60;;;22.90;83.30;;;;;;4875909;29;20206;-65
2022/06/28 01:37:29;;;;;;;13.40;8.70;;;23.00;83.60;;;;;;4868424;29;20199;-65
2022/06/28 01:39:54;;;;;;;10.50;7.70;;;23.00;83.50;;;;;;4852487;29;20192;-64
2022/06/28 01:42:20;;;;;;;9.67;7.93;;;23.00;83.10;;;;;;4882769;29;20197;-64
2022/06/28 01:44:49;;;;;;;12.70;8.23;;;22.90;83.30;;;;;;4900066;29;20192;-64
2022/06/28 01:47:17;;;;;;;8.87;7.27;;;23.00;83.30;;;;;;4883251;29;20219;-64
2022/06/28 01:49:43;;;;;;;10.37;8.60;;;23.00;83.30;;;;;;4874822;29;20192;-64
2022/06/28 01:52:09;;;;;;;9.17;7.83;;;22.90;83.10;;;;;;4880168;29;20274;-64
2022/06/28 01:54:35;;;;;;;9.90;8.10;;;23.00;82.80;;;;;;4883634;29;20192;-65
2022/06/28 01:57:01;;;;;;;10.80;8.40;;;22.90;82.40;;;;;;4849523;29;20290;-64
2022/06/28 01:59:28;;;;;;;10.87;8.00;;;22.90;82.40;;;;;;4865410;29;20204;-64
2022/06/28 02:01:53;;;;;;;10.10;8.10;;;23.00;80.10;;;;;;4875881;29;20391;-65
2022/06/28 02:04:21;;;;;;;11.63;7.30;;;23.10;80.40;;;;;;4883347;29;20308;-64
2022/06/28 02:06:47;;;;;;;9.23;7.33;;;23.20;79.30;;;;;;4870939;29;20215;-64
2022/06/28 02:09:13;;;;;;;11.33;7.10;;;23.30;79.10;;;;;;4899498;29;20191;-65
2022/06/28 02:11:38;;;;;;;10.80;7.73;;;23.30;78.70;;;;;;4883417;29;20188;-64
2022/06/28 02:14:04;;;;;;;10.07;7.43;;;23.30;78.00;;;;;;4865363;29;20197;-65
2022/06/28 02:16:30;;;;;;;9.50;6.57;;;23.40;78.10;;;;;;4866733;29;20207;-65
2022/06/28 02:18:56;;;;;;;11.57;7.10;;;23.40;77.90;;;;;;4868126;29;20210;-64
2022/06/28 02:21:21;;;;;;;12.20;7.47;;;23.40;78.70;;;;;;4865982;29;20200;-64
2022/06/28 02:23:47;;;;;;;9.53;6.90;;;23.40;79.60;;;;;;4867686;29;20195;-64
2022/06/28 02:26:13;;;;;;;12.20;7.37;;;23.30;79.70;;;;;;4863905;29;20248;-65
2022/06/28 02:28:40;;;;;;;9.70;7.33;;;23.30;79.70;;;;;;4864353;29;20195;-65
2022/06/28 02:31:14;;;;;;;9.97;6.90;;;23.30;80.20;;;;;;4860768;29;20223;-65
2022/06/28 02:33:41;;;;;;;10.90;6.70;;;23.30;80.70;;;;;;4864526;29;20189;-64
2022/06/28 02:41:36;;;;;;;9.70;7.47;;;23.20;80.20;;;;;;4895345;29;20210;-64
2022/06/28 02:44:02;;;;;;;8.20;6.73;;;23.10;80.40;;;;;;4864051;29;20201;-64
2022/06/28 02:46:28;;;;;;;10.63;7.20;;;23.10;79.90;;;;;;4880285;29;20278;-64
2022/06/28 02:48:53;;;;;;;11.50;7.20;;;23.10;80.20;;;;;;4882622;29;20271;-64
2022/06/28 02:51:20;;;;;;;8.00;6.70;;;23.00;79.50;;;;;;4867149;29;20202;-64
2022/06/28 02:53:46;;;;;;;8.23;6.87;;;23.10;79.20;;;;;;4844297;29;20200;-64
2022/06/28 02:56:12;;;;;;;9.90;7.07;;;23.10;79.70;;;;;;4872436;29;20215;-65
2022/06/28 02:58:38;;;;;;;10.77;7.40;;;23.00;79.10;;;;;;4870653;29;20204;-65
2022/06/28 03:01:03;;;;;;;7.73;5.90;;;23.00;79.70;;;;;;4880523;29;20235;-66
2022/06/28 03:03:29;;;;;;;7.97;5.57;;;23.00;77.80;;;;;;4852342;29;20196;-66
2022/06/28 03:05:55;;;;;;;7.00;6.30;;;23.00;78.20;;;;;;4886227;29;20219;-67
2022/06/28 03:08:20;;;;;;;7.50;5.63;;;23.00;78.40;;;;;;4866592;29;20203;-66
2022/06/28 03:10:46;;;;;;;11.43;5.90;;;23.00;77.70;;;;;;4851183;29;20205;-67
2022/06/28 03:13:12;;;;;;;5.50;4.00;;;22.90;77.40;;;;;;4879891;29;20200;-67
2022/06/28 03:15:37;;;;;;;6.10;3.67;;;22.90;71.70;;;;;;4858688;29;20187;-66
2022/06/28 03:18:03;;;;;;;5.90;2.73;;;23.00;70.80;;;;;;4882542;29;20265;-66
2022/06/28 03:20:29;;;;;;;6.40;2.63;;;23.10;66.90;;;;;;4882688;29;20198;-66
2022/06/28 03:22:56;;;;;;;3.63;2.37;;;23.20;65.70;;;;;;4881255;29;20224;-66
2022/06/28 03:25:21;;;;;;;4.10;2.23;;;23.30;63.50;;;;;;4867285;29;20223;-66
2022/06/28 03:27:47;;;;;;;5.17;2.47;;;23.40;64.20;;;;;;4866794;29;20245;-66
2022/06/28 03:30:13;;;;;;;4.70;1.90;;;23.40;63.10;;;;;;4882356;29;20200;-67
2022/06/28 03:32:39;;;;;;;3.57;2.33;;;23.60;61.90;;;;;;4882406;29;20199;-67
2022/06/28 03:35:05;;;;;;;4.57;2.40;;;23.60;63.10;;;;;;4867091;29;20196;-67
2022/06/28 03:37:31;;;;;;;4.83;2.10;;;23.70;62.20;;;;;;4864090;29;20343;-67
2022/06/28 03:39:56;;;;;;;3.73;2.10;;;23.70;63.80;;;;;;4878624;29;20184;-67
2022/06/28 03:42:23;;;;;;;3.50;2.30;;;23.60;63.30;;;;;;4866592;29;20192;-68
2022/06/28 03:44:48;;;;;;;3.47;2.17;;;23.60;62.80;;;;;;4863128;29;20196;-67
2022/06/28 03:47:14;;;;;;;3.23;2.00;;;23.60;64.50;;;;;;4858596;29;20227;-64
2022/06/28 03:49:39;;;;;;;2.67;2.20;;;23.60;66.20;;;;;;4866449;29;20183;-65
2022/06/28 03:52:05;;;;;;;3.37;2.27;;;23.50;66.20;;;;;;4854339;29;20210;-64
2022/06/28 03:54:31;;;;;;;6.43;2.33;;;23.50;67.40;;;;;;4866632;29;20196;-65
2022/06/28 03:56:57;;;;;;;5.33;2.70;;;23.40;64.30;;;;;;4880572;29;20204;-65
2022/06/28 03:59:22;;;;;;;3.73;2.90;;;23.50;63.70;;;;;;4861840;29;20223;-65
2022/06/28 04:01:48;;;;;;;4.60;2.83;;;23.50;64.00;;;;;;4862926;29;20200;-65
2022/06/28 04:04:14;;;;;;;6.00;2.80;;;23.50;64.90;;;;;;4858341;29;20256;-65
2022/06/28 04:06:39;;;;;;;6.03;2.20;;;23.50;63.10;;;;;;4851161;29;20235;-65
2022/06/28 04:09:05;;;;;;;3.27;2.80;;;23.60;63.40;;;;;;4898320;29;20255;-65
2022/06/28 04:11:31;;;;;;;6.00;2.40;;;23.60;66.90;;;;;;4881985;29;20204;-65
2022/06/28 04:13:56;;;;;;;3.13;2.30;;;23.60;67.40;;;;;;4852718;29;20199;-65
2022/06/28 04:16:22;;;;;;;3.97;2.70;;;23.60;67.40;;;;;;4894903;29;20200;-64
2022/06/28 04:18:49;;;;;;;3.50;2.80;;;23.50;67.70;;;;;;4873286;29;20203;-64
2022/06/28 04:21:17;;;;;;;4.10;2.60;;;23.50;67.80;;;;;;4897612;29;20204;-64
2022/06/28 04:23:43;;;;;;;5.17;2.43;;;23.50;70.50;;;;;;4898646;29;20240;-65
2022/06/28 04:26:09;;;;;;;4.40;2.30;;;23.40;70.80;;;;;;4881091;29;20364;-65
2022/06/28 04:28:35;;;;;;;5.47;2.70;;;23.30;70.60;;;;;;4880031;29;20188;-65
2022/06/28 04:31:03;;;;;;;4.47;2.37;;;23.40;70.20;;;;;;4869785;29;20198;-65
2022/06/28 04:33:29;;;;;;;5.13;2.70;;;23.30;71.80;;;;;;4890859;29;20195;-65
2022/06/28 04:35:55;;;;;;;3.37;2.40;;;23.30;72.30;;;;;;4864006;29;20196;-65
2022/06/28 04:38:22;;;;;;;5.10;2.77;;;23.30;72.60;;;;;;4857401;29;20233;-64
2022/06/28 04:40:48;;;;;;;3.63;2.93;;;23.20;72.80;;;;;;4867373;29;20220;-64
2022/06/28 04:43:14;;;;;;;3.70;2.80;;;23.20;72.20;;;;;;4879223;29;20192;-64
2022/06/28 04:45:39;;;;;;;3.33;2.77;;;23.20;73.30;;;;;;4855182;29;20218;-64
2022/06/28 04:48:06;;;;;;;5.83;2.70;;;23.20;74.20;;;;;;4855652;29;20271;-64
2022/06/28 04:50:31;;;;;;;4.23;2.73;;;23.20;75.00;;;;;;4856601;29;20210;-65
2022/06/28 04:52:57;;;;;;;8.10;2.83;;;23.10;74.60;;;;;;4869879;29;20252;-65
2022/06/28 04:55:23;;;;;;;8.73;3.03;;;23.10;75.70;;;;;;4868285;29;20175;-64
2022/06/28 04:57:49;;;;;;;3.20;2.67;;;23.30;75.90;;;;;;4841082;29;20199;-64
2022/06/28 05:00:15;;;;;;;4.03;2.63;;;23.20;75.90;;;;;;4882787;29;20207;-64
2022/06/28 05:02:41;;;;;;;3.30;2.70;;;23.20;75.80;;;;;;4848464;29;20611;-64
2022/06/28 05:05:08;;;;;;;4.63;2.80;;;23.20;75.60;;;;;;4859824;29;20285;-64
2022/06/28 05:07:34;;;;;;;5.07;2.80;;;23.20;75.80;;;;;;4878601;29;20244;-65
2022/06/28 05:10:01;;;;;;;3.77;2.67;;;23.30;75.50;;;;;;4867130;29;20184;-65
2022/06/28 05:12:27;;;;;;;5.87;3.10;;;23.30;76.00;;;;;;4861637;29;20196;-64
2022/06/28 05:14:53;;;;;;;4.50;3.03;;;23.40;75.70;;;;;;4879361;29;20187;-64
2022/06/28 05:17:18;;;;;;;5.20;3.40;;;23.40;75.30;;;;;;4862983;29;20196;-64
2022/06/28 05:19:44;;;;;;;5.50;3.33;;;23.40;75.30;;;;;;4864759;29;20196;-65
2022/06/28 05:22:10;;;;;;;5.43;3.60;;;23.50;75.70;;;;;;4871516;29;20196;-65
2022/06/28 05:24:37;;;;;;;5.07;3.00;;;23.50;75.80;;;;;;4856059;29;20210;-65
2022/06/28 05:27:03;;;;;;;4.70;3.03;;;23.50;75.10;;;;;;4827910;29;1185350;-65
2022/06/28 05:29:29;;;;;;;5.37;3.67;;;23.50;75.90;;;;;;4871674;29;20201;-65
2022/06/28 05:31:55;;;;;;;4.27;3.50;;;23.50;76.30;;;;;;4877764;29;20240;-65
2022/06/28 05:34:21;;;;;;;4.13;3.20;;;23.50;76.70;;;;;;4848076;29;20189;-65
2022/06/28 05:36:47;;;;;;;5.07;3.30;;;23.50;76.90;;;;;;4853785;29;20196;-65
2022/06/28 05:39:13;;;;;;;5.47;2.93;;;23.50;76.90;;;;;;4866860;29;20195;-65
2022/06/28 05:41:41;;;;;;;7.67;2.87;;;23.50;77.10;;;;;;4882982;29;20234;-65
2022/06/28 05:44:08;;;;;;;8.73;3.07;;;23.60;74.80;;;;;;4867332;29;20188;-65
2022/06/28 05:46:34;;;;;;;5.93;3.70;;;23.60;75.00;;;;;;4881821;29;20276;-66
2022/06/28 05:49:00;;;;;;;5.47;3.27;;;23.60;76.00;;;;;;4879621;29;20188;-64
2022/06/28 05:51:25;;;;;;;8.13;3.50;;;23.70;76.40;;;;;;4848927;29;20239;-63
2022/06/28 05:53:51;;;;;;;4.40;3.50;;;23.70;77.50;;;;;;4852902;29;20210;-63
2022/06/28 05:56:17;;;;;;;5.10;3.07;;;23.80;78.30;;;;;;4870955;29;20204;-63
2022/06/28 05:58:42;;;;;;;4.90;3.80;;;23.90;78.40;;;;;;4864434;29;20204;-63
2022/06/28 06:01:08;;;;;;;4.97;3.70;;;23.90;78.40;;;;;;4851140;29;20200;-63
2022/06/28 06:03:34;;;;;;;6.53;3.83;;;24.00;78.30;;;;;;4867069;29;20200;-64
2022/06/28 06:06:00;;;;;;;6.53;3.93;;;24.00;77.90;;;;;;4851570;29;20219;-64
2022/06/28 06:08:26;;;;;;;8.53;4.60;;;24.10;78.10;;;;;;4881565;29;20199;-64
2022/06/28 06:10:51;;;;;;;6.07;4.10;;;24.10;78.40;;;;;;4882486;29;20196;-64
2022/06/28 06:13:17;;;;;;;10.47;4.67;;;24.10;77.80;;;;;;4862906;29;20199;-64
2022/06/28 06:15:43;;;;;;;4.57;4.03;;;24.10;78.10;;;;;;4859267;29;20203;-64
2022/06/28 06:18:08;;;;;;;5.70;4.67;;;24.10;76.10;;;;;;4867292;29;20259;-64
2022/06/28 06:20:34;;;;;;;5.93;3.90;;;24.20;75.30;;;;;;4866044;29;20203;-64
2022/06/28 06:23:00;;;;;;;5.97;4.27;;;24.20;76.30;;;;;;4866740;29;20224;-64
2022/06/28 06:25:26;;;;;;;6.93;4.03;;;24.20;76.60;;;;;;4862654;29;20215;-64
2022/06/28 06:27:51;;;;;;;7.77;4.67;;;24.20;75.80;;;;;;4867463;29;20242;-64
2022/06/28 06:30:17;;;;;;;8.77;4.80;;;24.20;74.10;;;;;;4865899;29;20252;-64
2022/06/28 06:32:43;;;;;;;7.70;4.77;;;24.20;74.10;;;;;;4866702;29;20206;-63
2022/06/28 06:35:09;;;;;;;7.10;4.83;;;24.30;74.70;;;;;;4881857;29;20198;-63
2022/06/28 06:37:35;;;;;;;5.90;4.17;;;24.30;74.40;;;;;;4881215;29;20215;-63
2022/06/28 06:40:01;;;;;;;6.20;3.60;;;24.30;73.20;;;;;;4864994;29;20192;-63
2022/06/28 06:42:26;;;;;;;4.97;3.83;;;24.30;71.00;;;;;;4843502;29;20210;-63
2022/06/28 06:44:52;;;;;;;7.33;4.20;;;24.30;70.40;;;;;;4866514;29;20258;-63
2022/06/28 06:47:18;;;;;;;4.37;3.67;;;24.40;71.30;;;;;;4858853;29;20226;-63
2022/06/28 06:49:43;;;;;;;6.00;3.97;;;24.40;71.40;;;;;;4866944;29;20191;-63
2022/06/28 06:52:09;;;;;;;5.73;4.13;;;24.40;71.80;;;;;;4865034;29;20214;-63
2022/06/28 06:54:35;;;;;;;3.23;2.60;;;24.40;71.40;;;;;;4876834;29;20211;-63
2022/06/28 06:57:01;;;;;;;3.87;3.00;;;24.50;64.80;;;;;;4846731;29;20231;-63
2022/06/28 06:59:26;;;;;;;7.87;3.53;;;24.60;67.70;;;;;;4848093;29;20212;-63
2022/06/28 07:01:52;;;;;;;3.33;2.87;;;24.60;62.70;;;;;;4847698;29;20206;-63
2022/06/28 07:04:18;;;;;;;3.20;2.57;;;24.70;64.90;;;;;;4847807;29;20197;-63
2022/06/28 07:06:43;;;;;;;3.77;2.40;;;24.70;67.10;;;;;;4862445;29;20244;-63
2022/06/28 07:09:09;;;;;;;4.73;2.80;;;24.70;66.60;;;;;;4878120;29;20190;-63
2022/06/28 07:11:35;;;;;;;4.67;2.60;;;24.70;66.80;;;;;;4862751;29;20207;-63
2022/06/28 07:14:01;;;;;;;5.07;2.80;;;24.80;69.40;;;;;;4865019;29;20196;-63
2022/06/28 07:16:27;;;;;;;5.00;3.50;;;24.70;68.70;;;;;;4883283;29;20192;-63
2022/06/28 07:18:53;;;;;;;4.63;2.50;;;24.70;67.60;;;;;;4849547;29;20196;-63
2022/06/28 07:21:18;;;;;;;4.97;2.67;;;24.80;68.50;;;;;;4865728;29;20202;-63
2022/06/28 07:23:44;;;;;;;3.50;2.60;;;24.80;70.50;;;;;;4865766;29;20238;-63
2022/06/28 07:26:11;;;;;;;2.37;2.07;;;24.80;70.30;;;;;;4865182;29;20290;-63
2022/06/28 07:28:36;;;;;;;2.77;2.23;;;24.80;65.20;;;;;;4881149;29;20191;-63
2022/06/28 07:31:02;;;;;;;7.83;2.73;;;24.80;67.30;;;;;;4880070;29;20191;-63
2022/06/28 07:33:28;;;;;;;3.37;1.67;;;24.80;67.20;;;;;;4877773;29;20203;-63
2022/06/28 07:35:54;;;;;;;5.70;2.20;;;24.80;64.90;;;;;;4842112;29;20210;-63
2022/06/28 07:38:19;;;;;;;4.57;2.23;;;24.90;64.80;;;;;;4881435;29;20187;-63
2022/06/28 07:40:45;;;;;;;4.90;2.03;;;24.90;65.80;;;;;;4860377;29;20195;-63
2022/06/28 07:43:11;;;;;;;4.63;2.13;;;24.90;63.00;;;;;;4849486;29;20251;-63
2022/06/28 07:45:39;;;;;;;4.10;2.03;;;25.00;64.70;;;;;;4846985;29;20248;-63
2022/06/28 07:48:06;;;;;;;5.13;1.67;;;25.00;65.90;;;;;;4861865;29;20198;-63
2022/06/28 07:53:16;;;;;;;3.20;1.80;;;25.00;69.10;;;;;;4898040;29;20198;-64
2022/06/28 07:55:42;;;;;;;3.53;1.97;;;25.00;68.40;;;;;;4880243;29;20208;-64
2022/06/28 07:58:08;;;;;;;5.07;2.17;;;25.00;65.80;;;;;;4880602;29;20199;-64
2022/06/28 08:00:33;;;;;;;3.23;2.13;;;25.10;64.70;;;;;;4865591;29;20204;-64
2022/06/28 08:02:59;;;;;;;3.13;2.10;;;25.10;64.80;;;;;;4880452;29;20196;-64
2022/06/28 08:05:25;;;;;;;3.53;2.50;;;25.20;67.40;;;;;;4849936;29;20200;-64
2022/06/28 08:07:51;;;;;;;4.63;2.57;;;25.20;65.70;;;;;;4880172;29;20287;-64
2022/06/28 08:10:17;;;;;;;5.13;2.70;;;25.20;66.30;;;;;;4849396;29;20283;-64
2022/06/28 08:12:43;;;;;;;3.77;2.40;;;25.30;68.50;;;;;;4882524;29;20225;-64
2022/06/28 08:15:10;;;;;;;4.50;2.70;;;25.30;65.80;;;;;;4888971;29;20253;-64
2022/06/28 08:17:36;;;;;;;3.67;2.80;;;25.40;67.20;;;;;;4884869;29;20188;-64
2022/06/28 08:20:02;;;;;;;3.20;2.43;;;25.40;67.20;;;;;;4867785;29;20608;-64
2022/06/28 08:22:28;;;;;;;3.70;3.03;;;25.40;68.40;;;;;;4882120;29;20184;-64
2022/06/28 08:24:54;;;;;;;4.90;2.90;;;25.40;66.90;;;;;;4855817;29;20203;-64
2022/06/28 08:27:19;;;;;;;4.83;2.80;;;25.40;68.90;;;;;;4881956;29;20255;-64
2022/06/28 08:29:46;;;;;;;6.63;2.97;;;25.40;66.00;;;;;;4853585;29;20199;-64
2022/06/28 08:32:13;;;;;;;3.53;2.63;;;25.40;64.40;;;;;;4850527;29;20292;-64
2022/06/28 08:34:39;;;;;;;2.80;2.60;;;25.40;67.00;;;;;;4894693;29;20235;-64
2022/06/28 08:37:06;;;;;;;6.53;2.80;;;25.40;65.70;;;;;;4883513;29;20187;-64
2022/06/28 08:39:32;;;;;;;5.30;2.40;;;25.50;67.60;;;;;;4900718;29;20184;-64
2022/06/28 08:42:03;;;;;;;4.27;2.50;;;25.40;62.60;;;;;;4900937;29;20196;-64
2022/06/28 08:44:35;;;;;;;3.60;2.70;;;25.50;64.50;;;;;;4882937;29;20207;-64
2022/06/28 08:47:02;;;;;;;3.03;2.30;;;25.50;62.40;;;;;;4877385;29;20302;-64
2022/06/28 08:49:33;;;;;;;2.50;2.13;;;25.60;63.50;;;;;;4868484;29;20240;-64
2022/06/28 08:52:00;;;;;;;2.60;1.90;;;25.50;62.90;;;;;;4881855;29;20192;-64
2022/06/28 08:54:27;;;;;;;4.17;2.50;;;25.50;65.10;;;;;;4857757;29;20192;-64
2022/06/28 08:56:53;;;;;;;4.40;3.33;;;25.50;60.60;;;;;;4865044;29;20266;-64
2022/06/28 08:59:19;;;;;;;2.70;2.50;;;25.50;62.60;;;;;;4900645;29;20196;-63
2022/06/28 09:01:44;;;;;;;5.63;2.90;;;25.50;64.80;;;;;;4877729;29;20203;-64
2022/06/28 09:04:11;;;;;;;3.93;3.07;;;25.50;62.00;;;;;;4867164;29;20195;-64
2022/06/28 09:06:37;;;;;;;6.10;3.80;;;25.60;59.80;;;;;;4866730;29;20216;-64
2022/06/28 09:09:03;;;;;;;3.67;3.37;;;25.70;61.40;;;;;;4880660;29;20283;-64
2022/06/28 09:11:40;;;;;;;6.40;4.80;;;25.80;62.70;;;;;;4864855;29;20196;-64
2022/06/28 09:14:23;;;;;;;4.67;4.17;;;26.00;63.20;;;;;;4881717;29;20198;-64
2022/06/28 09:16:48;;;;;;;7.97;4.23;;;26.10;62.80;;;;;;4899489;29;20188;-64
2022/06/28 09:19:14;;;;;;;4.57;4.07;;;26.10;63.70;;;;;;4867946;29;20199;-64
2022/06/28 09:21:44;;;;;;;5.03;3.83;;;26.30;60.50;;;;;;4866271;29;20208;-64
2022/06/28 09:24:10;;;;;;;4.97;4.10;;;26.30;61.30;;;;;;4867818;29;20255;-64
2022/06/28 09:26:35;;;;;;;4.70;4.13;;;26.40;63.90;;;;;;4866865;29;20243;-64
2022/06/28 09:29:01;;;;;;;6.23;4.60;;;26.60;61.80;;;;;;4867665;29;20188;-64
2022/06/28 09:31:29;;;;;;;5.20;4.00;;;26.60;61.10;;;;;;4849738;29;20196;-64
2022/06/28 09:34:01;;;;;;;5.83;4.13;;;26.60;60.70;;;;;;4883167;29;20249;-64
2022/06/28 09:36:28;;;;;;;4.60;4.20;;;26.80;60.50;;;;;;4893846;29;20202;-64
2022/06/28 09:38:56;;;;;;;4.20;3.90;;;26.90;61.20;;;;;;4863762;29;20287;-64
2022/06/28 09:41:24;;;;;;;4.57;4.17;;;27.00;62.90;;;;;;4862455;29;20196;-64
2022/06/28 09:44:08;;;;;;;6.10;4.27;;;27.00;62.20;;;;;;4882595;29;20192;-64
2022/06/28 09:46:33;;;;;;;4.63;4.23;;;27.10;61.50;;;;;;4858868;29;20223;-64
2022/06/28 09:49:03;;;;;;;4.87;3.73;;;27.10;58.90;;;;;;4867554;29;20202;-64
2022/06/28 09:51:30;;;;;;;4.13;3.80;;;27.20;60.00;;;;;;4880829;29;20199;-64
2022/06/28 09:53:59;;;;;;;5.23;4.83;;;27.30;62.20;;;;;;4882710;29;20239;-64
2022/06/28 09:56:27;;;;;;;6.40;4.30;;;27.30;63.10;;;;;;4883026;29;20191;-64
2022/06/28 09:58:53;;;;;;;6.53;5.00;;;27.40;61.00;;;;;;4866087;29;20207;-64
2022/06/28 10:01:20;;;;;;;4.43;4.03;;;27.50;63.30;;;;;;4882261;29;20266;-64
2022/06/28 10:03:49;;;;;;;4.77;3.93;;;27.60;61.20;;;;;;4864999;29;20212;-64
2022/06/28 10:06:16;;;;;;;5.87;4.77;;;27.70;58.80;;;;;;4882206;29;20216;-64
2022/06/28 10:08:42;;;;;;;7.57;4.30;;;27.80;60.40;;;;;;4867387;29;20278;-64
2022/06/28 10:11:10;;;;;;;5.17;4.20;;;27.70;60.20;;;;;;4867245;29;20188;-64
2022/06/28 10:16:31;;;;;;;5.47;3.70;;;27.90;61.20;;;;;;4896041;29;20199;-64
2022/06/28 10:19:00;;;;;;;5.13;4.13;;;28.00;60.90;;;;;;4898404;29;20187;-64
2022/06/28 10:21:45;;;;;;;4.40;4.00;;;28.00;61.30;;;;;;4880931;29;20192;-64
2022/06/28 10:24:12;;;;;;;6.70;4.00;;;28.10;59.60;;;;;;4881916;29;20290;-64
2022/06/28 10:26:41;;;;;;;5.83;3.97;;;28.20;60.90;;;;;;4879146;29;20239;-64
2022/06/28 10:29:09;;;;;;;4.33;3.90;;;28.30;60.50;;;;;;4881505;29;20199;-64
2022/06/28 10:31:42;;;;;;;5.20;3.30;;;28.30;59.00;;;;;;4889445;29;20184;-64
2022/06/28 10:34:15;;;;;;;3.67;3.33;;;28.30;55.90;;;;;;4882177;29;20222;-64
2022/06/28 10:36:50;;;;;;;4.00;3.60;;;28.50;56.70;;;;;;4880513;29;20294;-64
2022/06/28 10:39:21;;;;;;;5.43;3.93;;;28.60;55.00;;;;;;4893017;29;20199;-64
2022/06/28 10:42:06;;;;;;;6.10;3.90;;;28.70;57.70;;;;;;4896809;29;20226;-64
2022/06/28 10:44:31;;;;;;;5.30;3.87;;;28.80;60.40;;;;;;4872083;29;20271;-64
2022/06/28 10:47:06;;;;;;;6.40;3.83;;;28.80;59.10;;;;;;4877346;29;20314;-64
2022/06/28 10:49:44;;;;;;;6.13;4.83;;;28.80;57.80;;;;;;4872458;29;20191;-64
2022/06/28 10:52:15;;;;;;;4.83;3.60;;;28.90;57.10;;;;;;4892454;29;20195;-64
2022/06/28 10:55:04;;;;;;;6.80;4.17;;;29.00;56.80;;;;;;4888786;29;20195;-64
2022/06/28 10:57:36;;;;;;;5.57;4.07;;;29.00;57.50;;;;;;4864033;29;20196;-64
2022/06/28 11:00:08;;;;;;;5.17;4.10;;;29.00;56.10;;;;;;4855993;29;20225;-63
2022/06/28 11:02:52;;;;;;;5.50;4.00;;;28.90;56.80;;;;;;4893068;29;20252;-64
2022/06/28 11:05:26;;;;;;;4.83;4.23;;;29.00;57.80;;;;;;4881400;29;20271;-64
2022/06/28 11:08:00;;;;;;;5.70;4.23;;;28.90;60.20;;;;;;4881980;29;20198;-64
2022/06/28 11:10:26;;;;;;;7.33;4.60;;;28.80;60.40;;;;;;4869065;29;20191;-64
2022/06/28 11:12:52;;;;;;;5.37;4.97;;;28.70;60.40;;;;;;4857810;29;20195;-63
2022/06/28 11:15:32;;;;;;;5.93;4.83;;;28.60;60.50;;;;;;4858455;29;20264;-63
2022/06/28 11:17:59;;;;;;;5.50;4.87;;;28.50;61.10;;;;;;4875831;29;20230;-64
2022/06/28 11:20:25;;;;;;;6.77;5.33;;;28.50;63.20;;;;;;4892558;29;20188;-63
2022/06/28 11:22:51;;;;;;;5.70;5.20;;;28.50;62.00;;;;;;4872586;29;20193;-63
2022/06/28 11:25:22;;;;;;;9.17;4.93;;;28.70;63.10;;;;;;4862761;29;20193;-63
2022/06/28 11:27:58;;;;;;;5.07;4.57;;;28.90;61.80;;;;;;4876112;29;20239;-63
2022/06/28 11:30:27;;;;;;;6.87;4.53;;;29.00;58.00;;;;;;4881538;29;20205;-63
2022/06/28 11:32:59;;;;;;;4.87;4.40;;;29.00;57.50;;;;;;4868666;29;20224;-63
2022/06/28 11:35:30;;;;;;;5.57;4.47;;;29.20;60.60;;;;;;4880806;29;20191;-62
2022/06/28 11:38:15;;;;;;;5.70;4.43;;;29.30;60.80;;;;;;4880956;29;20206;-63
2022/06/28 11:40:44;;;;;;;6.70;4.97;;;29.40;62.80;;;;;;4879171;29;20256;-64
2022/06/28 11:43:15;;;;;;;5.80;5.30;;;29.50;60.20;;;;;;4877080;29;20192;-64
2022/06/28 11:45:50;;;;;;;5.23;4.83;;;29.40;58.30;;;;;;4869521;29;20215;-63
2022/06/28 11:48:28;;;;;;;5.63;5.13;;;29.50;60.40;;;;;;4891739;29;20194;-63
2022/06/28 11:50:56;;;;;;;5.93;5.43;;;29.40;60.40;;;;;;4889824;29;20203;-64
2022/06/28 11:53:24;;;;;;;5.60;5.10;;;29.30;60.70;;;;;;4883272;29;20195;-63
2022/06/28 11:55:57;;;;;;;3.10;2.80;;;29.30;60.90;;;;;;4860914;29;20204;-63
2022/06/28 11:58:32;;;;;;;3.97;3.67;;;29.30;61.20;;;;;;4896251;29;20347;-63
2022/06/28 12:01:12;;;;;;;3.80;3.50;;;29.20;60.50;;;;;;4862389;29;20192;-63
2022/06/28 12:03:43;;;;;;;4.57;4.17;;;29.10;61.00;;;;;;4875835;29;20199;-63
2022/06/28 12:06:22;;;;;;;5.67;3.33;;;29.00;60.20;;;;;;4885670;29;20208;-62
2022/06/28 12:08:50;;;;;;;5.97;5.53;;;29.10;60.30;;;;;;4872870;29;20203;-63
2022/06/28 12:11:30;;;;;;;6.10;5.57;;;29.20;58.10;;;;;;4866852;29;20289;-63
2022/06/28 12:13:57;;;;;;;7.80;6.57;;;29.30;60.50;;;;;;4873734;29;20192;-64
2022/06/28 12:16:23;;;;;;;6.43;5.87;;;29.70;58.90;;;;;;4892645;29;20184;-63
2022/06/28 12:18:53;;;;;;;6.70;6.00;;;29.80;60.10;;;;;;4875488;29;20220;-63
2022/06/28 12:21:19;;;;;;;7.27;6.33;;;29.80;58.20;;;;;;4880486;29;20195;-63
2022/06/28 12:23:53;;;;;;;6.63;5.97;;;30.40;59.20;;;;;;4874495;29;20211;-63
2022/06/28 12:26:20;;;;;;;7.03;6.43;;;31.30;55.30;;;;;;4874236;29;20296;-64
2022/06/28 12:28:46;;;;;;;6.93;5.30;;;31.50;55.70;;;;;;4877165;29;20223;-63
2022/06/28 12:31:12;;;;;;;5.57;4.87;;;31.40;56.40;;;;;;4861489;29;20192;-63
2022/06/28 12:33:38;;;;;;;6.60;5.20;;;31.20;56.50;;;;;;4871095;29;20193;-63
2022/06/28 12:36:04;;;;;;;7.27;5.93;;;30.90;56.70;;;;;;4857953;29;20200;-63
2022/06/28 12:38:30;;;;;;;7.23;6.53;;;30.70;58.00;;;;;;4864673;29;20282;-63
2022/06/28 12:40:56;;;;;;;6.83;6.23;;;30.80;57.70;;;;;;4864548;29;20267;-63
2022/06/28 12:43:22;;;;;;;7.80;6.40;;;30.50;56.00;;;;;;4896171;29;20224;-63
2022/06/28 12:45:48;;;;;;;7.17;6.50;;;30.20;56.50;;;;;;4861328;29;20220;-63
2022/06/28 12:48:14;;;;;;;6.50;6.03;;;30.00;59.10;;;;;;4873583;29;20192;-63
2022/06/28 12:50:39;;;;;;;7.20;6.27;;;30.00;59.30;;;;;;4847722;29;20200;-63
2022/06/28 12:53:06;;;;;;;5.77;5.30;;;30.70;59.70;;;;;;4879108;29;20243;-63
2022/06/28 12:55:32;;;;;;;5.60;5.10;;;31.60;55.60;;;;;;4850197;29;20299;-63
2022/06/28 12:57:57;;;;;;;7.53;5.00;;;32.40;53.50;;;;;;4898296;29;20252;-63
2022/06/28 13:00:23;;;;;;;5.00;4.60;;;32.60;51.70;;;;;;4852680;29;20187;-64